Time;durP1;ratioP1;P1;durP2;ratioP2;P2;SDS_P1;SDS_P2;PMS_P1;PMS_P2;Temp;Humidity;BMP_temperature;BMP_pressure;BME280_temperature;BME280_humidity;BME280_pressure;Samples;Min_cycle;Max_cycle;Signal;HPM_P1;HPM_P2
2023/09/01 07:24:01;;;;;;;3.15;0.70;;;18.10;99.90;;;;;;4554671;23;20591;-69
2023/09/01 07:26:28;;;;;;;0.65;0.50;;;18.10;99.90;;;;;;4943581;28;20215;-73
2023/09/01 07:28:55;;;;;;;1.02;0.50;;;18.10;99.90;;;;;;4946608;28;20251;-69
2023/09/01 07:31:23;;;;;;;1.23;0.40;;;18.10;99.90;;;;;;4925138;29;20659;-69
2023/09/01 07:33:50;;;;;;;1.10;0.35;;;18.10;99.90;;;;;;4918638;29;20613;-68
2023/09/01 07:36:17;;;;;;;0.57;0.52;;;18.10;99.90;;;;;;4918780;29;20245;-68
2023/09/01 07:38:44;;;;;;;2.03;0.60;;;18.20;99.90;;;;;;4926572;29;20297;-72
2023/09/01 07:41:13;;;;;;;1.27;0.38;;;18.30;99.90;;;;;;4927329;29;20228;-69
2023/09/01 07:43:40;;;;;;;0.47;0.35;;;18.30;99.90;;;;;;4943443;29;20671;-69
2023/09/01 07:46:07;;;;;;;0.50;0.30;;;18.30;99.90;;;;;;4920811;29;20296;-69
2023/09/01 07:48:34;;;;;;;0.30;0.30;;;18.30;99.90;;;;;;4924656;29;20245;-70
2023/09/01 07:51:01;;;;;;;1.80;0.50;;;18.40;99.90;;;;;;4917530;29;20320;-71
2023/09/01 07:53:27;;;;;;;1.05;0.40;;;18.50;99.90;;;;;;4929795;29;20703;-72
2023/09/01 07:55:54;;;;;;;2.10;0.40;;;18.60;99.90;;;;;;4922387;29;20632;-70
2023/09/01 07:58:23;;;;;;;0.57;0.40;;;18.50;99.90;;;;;;4923509;29;20300;-71
2023/09/01 08:00:50;;;;;;;0.50;0.30;;;18.50;99.90;;;;;;4918098;29;20669;-71
2023/09/01 08:03:17;;;;;;;1.35;0.45;;;18.50;99.90;;;;;;4924229;29;20248;-71
2023/09/01 08:05:44;;;;;;;1.88;0.30;;;18.60;99.90;;;;;;4924743;29;20288;-71
2023/09/01 08:08:13;;;;;;;2.05;0.30;;;18.50;99.90;;;;;;4923821;29;20300;-72
2023/09/01 08:10:40;;;;;;;0.60;0.30;;;18.50;99.90;;;;;;4918493;29;20265;-69
2023/09/01 08:13:07;;;;;;;0.93;0.52;;;18.60;99.90;;;;;;4918435;29;20297;-70
2023/09/01 08:15:35;;;;;;;1.23;0.40;;;18.50;99.90;;;;;;4918327;29;20249;-70
2023/09/01 08:18:02;;;;;;;1.10;0.40;;;18.50;99.90;;;;;;4918477;29;20237;-70
2023/09/01 08:20:29;;;;;;;0.40;0.32;;;18.50;99.90;;;;;;4918080;29;20245;-70
2023/09/01 08:22:56;;;;;;;0.98;0.30;;;18.30;99.90;;;;;;4921879;29;20425;-70
2023/09/01 08:25:23;;;;;;;1.38;0.20;;;18.30;99.90;;;;;;4954694;29;20295;-72
2023/09/01 08:27:50;;;;;;;0.60;0.20;;;18.30;99.90;;;;;;4954553;29;20746;-71
2023/09/01 08:30:17;;;;;;;1.45;0.22;;;18.10;99.90;;;;;;4954625;28;20836;-72
2023/09/01 08:32:45;;;;;;;0.30;0.20;;;18.10;99.90;;;;;;4952403;29;20243;-72
2023/09/01 08:35:13;;;;;;;0.70;0.40;;;18.00;99.90;;;;;;4935714;29;20248;-71
2023/09/01 08:37:40;;;;;;;0.65;0.20;;;17.90;99.90;;;;;;4935083;29;20209;-72
2023/09/01 08:40:09;;;;;;;0.22;0.13;;;17.90;99.90;;;;;;4934927;29;20275;-71
2023/09/01 08:42:43;;;;;;;0.20;0.20;;;17.90;99.90;;;;;;4943838;29;20212;-71
2023/09/01 08:45:10;;;;;;;1.42;0.20;;;18.00;99.90;;;;;;4934998;29;20247;-71
2023/09/01 08:47:46;;;;;;;0.20;0.20;;;18.00;99.90;;;;;;4935664;29;20209;-71
2023/09/01 08:50:14;;;;;;;0.57;0.20;;;18.10;99.90;;;;;;4935217;29;20315;-72
2023/09/01 08:52:42;;;;;;;0.93;0.40;;;18.10;99.90;;;;;;4934183;29;20300;-71
2023/09/01 08:55:10;;;;;;;1.33;0.30;;;18.10;99.90;;;;;;4935569;29;20247;-71
2023/09/01 08:57:37;;;;;;;0.40;0.30;;;18.20;99.90;;;;;;4935461;29;20212;-70
2023/09/01 09:00:07;;;;;;;2.03;0.40;;;18.30;99.90;;;;;;4934670;29;20240;-71
2023/09/01 09:02:36;;;;;;;0.38;0.20;;;18.30;99.90;;;;;;4934990;29;20213;-71
2023/09/01 09:05:05;;;;;;;0.43;0.30;;;18.30;99.90;;;;;;4935295;29;20336;-71
2023/09/01 09:07:32;;;;;;;0.30;0.30;;;18.40;99.90;;;;;;4934580;29;20213;-70
2023/09/01 09:10:00;;;;;;;0.70;0.40;;;18.50;99.90;;;;;;4934970;29;20272;-72
2023/09/01 09:12:36;;;;;;;0.95;0.40;;;18.50;99.90;;;;;;4935116;29;20236;-71
2023/09/01 09:15:04;;;;;;;0.73;0.32;;;18.60;99.90;;;;;;4934317;29;20247;-71
2023/09/01 09:17:44;;;;;;;1.95;0.47;;;18.70;99.90;;;;;;4934940;29;20217;-71
2023/09/01 09:20:14;;;;;;;0.30;0.30;;;18.80;99.90;;;;;;4934753;29;20263;-70
2023/09/01 09:22:59;;;;;;;1.08;0.60;;;18.80;99.90;;;;;;4934125;29;20242;-70
2023/09/01 09:25:28;;;;;;;0.40;0.30;;;18.80;99.90;;;;;;4934432;29;20208;-71
2023/09/01 09:27:56;;;;;;;0.70;0.40;;;18.70;99.90;;;;;;4934668;29;20213;-69
2023/09/01 09:30:25;;;;;;;1.60;0.30;;;18.80;99.90;;;;;;4934554;29;20267;-70
2023/09/01 09:33:03;;;;;;;0.32;0.22;;;18.80;99.90;;;;;;4934765;29;20211;-70
2023/09/01 09:35:31;;;;;;;0.30;0.20;;;18.80;99.90;;;;;;4934383;29;20216;-70
2023/09/01 09:37:59;;;;;;;0.47;0.20;;;18.90;99.90;;;;;;4934398;29;20240;-69
2023/09/01 09:40:27;;;;;;;0.40;0.38;;;18.90;99.90;;;;;;4934416;29;20331;-69
2023/09/01 09:42:57;;;;;;;0.73;0.38;;;18.80;99.90;;;;;;4934592;29;20245;-70
2023/09/01 09:45:28;;;;;;;0.30;0.20;;;18.70;99.90;;;;;;4933947;29;20293;-71
2023/09/01 09:47:56;;;;;;;0.38;0.30;;;18.70;99.90;;;;;;4933960;29;20778;-69
2023/09/01 09:50:25;;;;;;;0.90;0.30;;;18.60;99.90;;;;;;4934389;29;20264;-70
2023/09/01 09:52:57;;;;;;;0.30;0.20;;;18.50;99.90;;;;;;4933600;29;20268;-69
2023/09/01 09:55:27;;;;;;;1.00;0.20;;;18.50;99.90;;;;;;4934300;29;20694;-69
2023/09/01 09:58:00;;;;;;;0.30;0.20;;;18.50;99.90;;;;;;4934664;29;20305;-70
2023/09/01 10:00:30;;;;;;;0.20;0.20;;;18.50;99.90;;;;;;4933961;29;21015;-70
2023/09/01 10:03:01;;;;;;;0.38;0.20;;;18.40;99.90;;;;;;4934414;29;20671;-69
2023/09/01 10:05:31;;;;;;;0.22;0.10;;;18.30;99.90;;;;;;4934140;29;20204;-69
2023/09/01 10:08:03;;;;;;;0.20;0.20;;;18.30;99.90;;;;;;4933680;29;20215;-70
2023/09/01 10:10:33;;;;;;;0.60;0.20;;;18.30;99.90;;;;;;4933963;29;20235;-71
2023/09/01 10:13:02;;;;;;;0.57;0.20;;;18.40;99.90;;;;;;4934417;29;20205;-70
2023/09/01 10:15:31;;;;;;;0.47;0.20;;;18.40;99.90;;;;;;4928944;29;20331;-69
2023/09/01 10:18:00;;;;;;;0.20;0.17;;;18.70;99.90;;;;;;4936318;29;20760;-72
2023/09/01 10:20:28;;;;;;;1.45;0.20;;;18.80;99.90;;;;;;4933808;29;20315;-70
2023/09/01 10:22:55;;;;;;;1.10;0.30;;;19.00;99.90;;;;;;4943047;29;20240;-69
2023/09/01 10:25:24;;;;;;;1.75;0.30;;;19.30;99.90;;;;;;4933962;29;20211;-70
2023/09/01 10:28:05;;;;;;;0.52;0.25;;;19.60;99.90;;;;;;4936478;29;20312;-69
2023/09/01 10:30:34;;;;;;;0.30;0.20;;;19.90;99.90;;;;;;4937227;29;20260;-69
2023/09/01 10:33:08;;;;;;;0.50;0.20;;;20.10;99.90;;;;;;4937970;29;20296;-68
2023/09/01 10:35:43;;;;;;;0.40;0.20;;;20.20;99.90;;;;;;4937987;29;20433;-69
2023/09/01 10:38:11;;;;;;;1.33;0.30;;;20.40;99.90;;;;;;4937478;29;20208;-69
2023/09/01 10:40:44;;;;;;;0.30;0.20;;;20.60;99.90;;;;;;4937342;29;20243;-68
2023/09/01 10:43:12;;;;;;;0.30;0.20;;;20.80;99.90;;;;;;4937099;29;20295;-68
2023/09/01 10:45:39;;;;;;;0.70;0.30;;;20.80;99.90;;;;;;4937452;29;20672;-69
2023/09/01 10:48:11;;;;;;;0.30;0.30;;;20.90;99.90;;;;;;4937543;29;20231;-68
2023/09/01 10:50:41;;;;;;;0.70;0.50;;;20.90;99.90;;;;;;4936916;29;20232;-68
2023/09/01 10:53:31;;;;;;;0.95;0.40;;;21.10;99.90;;;;;;4937056;29;20205;-68
2023/09/01 10:56:12;;;;;;;0.80;0.50;;;21.40;99.90;;;;;;4937527;29;20248;-68
2023/09/01 10:58:48;;;;;;;0.95;0.47;;;21.80;99.90;;;;;;4937081;29;20209;-69
2023/09/01 11:01:36;;;;;;;0.90;0.50;;;22.00;99.90;;;;;;4937129;29;20272;-69
2023/09/01 11:04:33;;;;;;;0.90;0.50;;;22.10;99.90;;;;;;4937259;29;20604;-68
2023/09/01 11:07:04;;;;;;;0.60;0.50;;;22.10;99.90;;;;;;4936547;29;20634;-71
2023/09/01 11:09:50;;;;;;;0.70;0.50;;;22.30;99.90;;;;;;4936911;29;20296;-69
2023/09/01 11:12:19;;;;;;;0.73;0.32;;;22.00;99.90;;;;;;4937290;29;20252;-69
2023/09/01 11:14:57;;;;;;;0.50;0.50;;;22.00;99.90;;;;;;4936619;29;20213;-69
2023/09/01 11:17:41;;;;;;;1.60;0.50;;;22.20;99.90;;;;;;4936851;29;20215;-69
2023/09/01 11:20:10;;;;;;;0.40;0.40;;;22.30;99.90;;;;;;4936673;29;20364;-69
2023/09/01 11:22:41;;;;;;;0.60;0.50;;;22.60;99.90;;;;;;4936610;29;20296;-69
2023/09/01 11:25:16;;;;;;;0.55;0.50;;;22.50;99.90;;;;;;4936744;29;20304;-69
2023/09/01 11:27:46;;;;;;;0.60;0.40;;;22.70;99.90;;;;;;4936493;29;20304;-69
2023/09/01 11:30:13;;;;;;;0.45;0.40;;;22.90;99.90;;;;;;4936399;29;20320;-69
2023/09/01 11:32:40;;;;;;;0.90;0.43;;;22.90;99.90;;;;;;4936686;29;20572;-69
2023/09/01 11:35:09;;;;;;;0.70;0.60;;;22.90;99.90;;;;;;4935682;29;20216;-69
2023/09/01 11:37:41;;;;;;;0.57;0.57;;;22.90;99.90;;;;;;4937904;28;20215;-69
2023/09/01 11:40:09;;;;;;;1.00;0.80;;;22.70;99.90;;;;;;4935950;29;20233;-70
2023/09/01 11:42:38;;;;;;;0.75;0.60;;;22.60;99.90;;;;;;4944228;29;20212;-70
2023/09/01 11:45:09;;;;;;;0.90;0.70;;;22.50;99.90;;;;;;4935985;29;20244;-69
2023/09/01 11:47:36;;;;;;;2.10;0.90;;;22.30;99.90;;;;;;4936422;29;20224;-70
2023/09/01 11:50:04;;;;;;;1.20;0.90;;;22.10;99.90;;;;;;4935732;29;20672;-68
2023/09/01 11:52:31;;;;;;;1.67;1.10;;;22.00;99.90;;;;;;4936596;29;20251;-68
2023/09/01 11:54:58;;;;;;;1.80;1.30;;;22.00;99.90;;;;;;4935984;29;20572;-69
2023/09/01 11:57:25;;;;;;;1.10;0.90;;;22.10;99.90;;;;;;4935918;29;20251;-69
2023/09/01 11:59:52;;;;;;;2.28;1.17;;;22.40;99.90;;;;;;4936482;29;20235;-69
2023/09/01 12:02:21;;;;;;;1.45;1.15;;;22.70;99.90;;;;;;4935831;29;20244;-69
2023/09/01 12:04:52;;;;;;;1.25;0.85;;;22.90;99.90;;;;;;4935628;29;20304;-69
2023/09/01 12:07:26;;;;;;;1.00;0.80;;;23.00;99.90;;;;;;4935991;29;20255;-68
2023/09/01 12:09:54;;;;;;;1.00;0.77;;;23.20;99.90;;;;;;4935692;29;20259;-68
2023/09/01 12:12:21;;;;;;;2.10;0.90;;;23.20;99.90;;;;;;4935607;29;20624;-68
2023/09/01 12:14:48;;;;;;;1.27;0.70;;;22.90;99.90;;;;;;4935905;29;20209;-68
2023/09/01 12:17:17;;;;;;;0.55;0.55;;;22.80;99.90;;;;;;4936153;29;20300;-69
2023/09/01 12:19:50;;;;;;;2.08;0.70;;;22.70;99.90;;;;;;4935150;29;20219;-69
2023/09/01 12:22:18;;;;;;;1.13;0.70;;;22.60;99.90;;;;;;4935793;29;20763;-69
2023/09/01 12:24:52;;;;;;;1.13;0.68;;;22.60;99.90;;;;;;4935492;29;20221;-70
2023/09/01 12:27:19;;;;;;;1.63;0.82;;;22.80;99.90;;;;;;4935228;29;20291;-70
2023/09/01 12:29:46;;;;;;;0.88;0.68;;;22.90;99.90;;;;;;4935433;29;20216;-70
2023/09/01 12:32:13;;;;;;;0.90;0.68;;;22.70;99.90;;;;;;4935460;29;20295;-69
2023/09/01 12:34:40;;;;;;;1.95;1.10;;;22.70;99.90;;;;;;4935083;29;20573;-71
2023/09/01 12:37:09;;;;;;;1.00;0.90;;;22.90;99.90;;;;;;4935563;29;20255;-72
2023/09/01 12:39:38;;;;;;;1.33;1.00;;;23.10;99.90;;;;;;4935629;29;20621;-70
2023/09/01 12:42:05;;;;;;;2.08;0.93;;;23.20;99.90;;;;;;4935520;29;20326;-69
2023/09/01 12:44:32;;;;;;;2.13;1.33;;;23.30;99.90;;;;;;4951919;29;20312;-68
2023/09/01 12:46:59;;;;;;;1.90;1.10;;;23.40;99.90;;;;;;4955077;29;20236;-69
2023/09/01 12:49:26;;;;;;;1.63;1.30;;;23.30;99.90;;;;;;4953374;28;20298;-69
2023/09/01 12:51:53;;;;;;;1.50;1.20;;;23.20;99.90;;;;;;4954599;28;20263;-69
2023/09/01 12:54:21;;;;;;;1.65;1.20;;;23.20;99.90;;;;;;4939627;29;20240;-69
2023/09/01 12:56:48;;;;;;;1.35;1.20;;;23.20;99.90;;;;;;4934482;29;20702;-68
2023/09/01 12:59:15;;;;;;;1.40;1.13;;;23.20;99.90;;;;;;4935425;29;20364;-72
2023/09/01 13:01:42;;;;;;;1.40;1.30;;;23.30;99.90;;;;;;4935299;29;20327;-68
2023/09/01 13:04:09;;;;;;;1.17;1.00;;;23.30;99.90;;;;;;4934561;29;20800;-68
2023/09/01 13:06:35;;;;;;;1.63;1.33;;;23.30;99.90;;;;;;4935106;29;20301;-68
2023/09/01 13:09:03;;;;;;;1.52;1.40;;;23.40;99.90;;;;;;4934717;29;20255;-68
2023/09/01 13:11:31;;;;;;;1.13;1.00;;;23.50;99.90;;;;;;4934715;29;20233;-68
2023/09/01 13:13:58;;;;;;;1.77;1.05;;;23.30;99.90;;;;;;4934794;29;20236;-68
2023/09/01 13:16:29;;;;;;;1.95;1.25;;;23.20;99.90;;;;;;4934755;29;20295;-69
2023/09/01 13:18:57;;;;;;;2.00;1.50;;;23.50;99.90;;;;;;4934533;29;20213;-69
2023/09/01 13:21:24;;;;;;;1.58;1.10;;;23.70;99.90;;;;;;4934452;29;20583;-68
2023/09/01 13:23:52;;;;;;;1.70;1.20;;;24.00;99.90;;;;;;4935111;29;20231;-69
2023/09/01 13:26:19;;;;;;;1.10;0.98;;;24.10;99.90;;;;;;4953374;29;20219;-69
2023/09/01 13:28:48;;;;;;;3.45;1.10;;;24.40;99.90;;;;;;4954004;29;20298;-69
2023/09/01 13:31:16;;;;;;;1.27;1.17;;;24.50;99.90;;;;;;4954201;28;20287;-72
2023/09/01 13:33:43;;;;;;;1.10;1.00;;;24.50;99.90;;;;;;4954949;29;20212;-69
2023/09/01 13:36:11;;;;;;;1.70;1.30;;;24.50;99.90;;;;;;4954757;29;20235;-69
2023/09/01 13:38:38;;;;;;;1.83;1.10;;;24.60;99.90;;;;;;4954982;29;20215;-69
2023/09/01 13:41:07;;;;;;;3.55;1.63;;;24.50;99.90;;;;;;4954522;28;20790;-69
2023/09/01 13:43:35;;;;;;;1.60;1.23;;;24.40;99.90;;;;;;4954902;29;20292;-70
2023/09/01 13:46:20;;;;;;;1.27;1.10;;;24.40;99.90;;;;;;4954993;29;20247;-69
2023/09/01 13:48:47;;;;;;;1.70;1.25;;;24.40;99.90;;;;;;4954557;29;20250;-69
2023/09/01 13:51:14;;;;;;;2.17;1.33;;;24.60;99.90;;;;;;4954893;28;20271;-70
2023/09/01 13:53:40;;;;;;;1.65;1.20;;;24.60;99.90;;;;;;4955120;29;20242;-68
2023/09/01 13:56:07;;;;;;;4.63;1.70;;;24.60;99.90;;;;;;4954757;29;20243;-69
2023/09/01 13:58:34;;;;;;;1.90;1.30;;;24.50;99.90;;;;;;4954968;29;20243;-69
2023/09/01 14:01:02;;;;;;;2.63;1.15;;;24.50;99.90;;;;;;4956399;28;20322;-69
2023/09/01 14:03:31;;;;;;;1.42;1.10;;;24.60;99.90;;;;;;4961076;29;20302;-69
2023/09/01 14:05:59;;;;;;;1.27;1.17;;;24.50;99.90;;;;;;4960924;29;20212;-69
2023/09/01 14:08:27;;;;;;;2.05;1.00;;;24.40;99.90;;;;;;4961042;29;20248;-69
2023/09/01 14:10:54;;;;;;;3.85;1.15;;;24.20;99.90;;;;;;4960935;28;20314;-70
2023/09/01 14:13:21;;;;;;;1.75;1.00;;;24.00;99.90;;;;;;4961054;28;20210;-77
2023/09/01 14:15:48;;;;;;;1.80;1.15;;;24.10;99.90;;;;;;4961259;28;20298;-69
2023/09/01 14:18:15;;;;;;;2.10;1.20;;;24.00;99.90;;;;;;4961234;29;20299;-76
2023/09/01 14:20:44;;;;;;;1.10;1.00;;;24.10;99.90;;;;;;4961074;28;20314;-68
2023/09/01 14:23:10;;;;;;;1.35;1.10;;;24.10;99.90;;;;;;4960982;28;20327;-68
2023/09/01 14:25:37;;;;;;;2.95;1.40;;;24.10;99.90;;;;;;4960899;28;20299;-70
2023/09/01 14:28:05;;;;;;;1.17;0.98;;;23.80;99.90;;;;;;4960812;29;20302;-78
2023/09/01 14:30:31;;;;;;;1.58;1.23;;;23.70;99.90;;;;;;4960909;28;20224;-70
2023/09/01 14:32:58;;;;;;;2.15;1.45;;;23.80;99.90;;;;;;4961131;29;20319;-70
2023/09/01 14:35:25;;;;;;;1.50;1.15;;;23.70;99.90;;;;;;4961000;28;20298;-78
2023/09/01 14:37:53;;;;;;;1.42;1.20;;;23.80;99.90;;;;;;4961146;28;20244;-70
2023/09/01 14:40:21;;;;;;;1.48;1.17;;;23.90;99.90;;;;;;4960812;28;20318;-78
2023/09/01 14:42:48;;;;;;;1.95;1.30;;;24.00;99.90;;;;;;4960880;28;20247;-70
2023/09/01 14:45:15;;;;;;;1.75;1.02;;;23.90;99.90;;;;;;4960900;28;20306;-78
2023/09/01 14:47:43;;;;;;;5.20;0.93;;;23.80;99.90;;;;;;4960848;29;20235;-77
2023/09/01 14:50:10;;;;;;;1.20;1.00;;;23.90;99.90;;;;;;4960663;28;20230;-70
2023/09/01 14:52:37;;;;;;;1.23;1.02;;;24.00;99.90;;;;;;4960671;29;20302;-70
2023/09/01 14:55:06;;;;;;;2.05;1.02;;;23.90;99.90;;;;;;4960629;29;20290;-69
2023/09/01 14:57:33;;;;;;;1.75;1.17;;;23.80;99.90;;;;;;4960655;29;20208;-69
2023/09/01 15:00:00;;;;;;;1.95;0.95;;;23.70;99.90;;;;;;4960844;28;20303;-70
2023/09/01 15:02:27;;;;;;;1.50;1.15;;;23.70;99.90;;;;;;4960824;29;20327;-77
2023/09/01 15:04:53;;;;;;;0.90;0.82;;;23.70;99.90;;;;;;4960713;29;20298;-70
2023/09/01 15:07:23;;;;;;;1.48;0.80;;;23.60;99.90;;;;;;4960656;29;20244;-70
2023/09/01 15:09:50;;;;;;;1.30;0.90;;;23.60;99.90;;;;;;4960666;28;20220;-78
2023/09/01 15:12:18;;;;;;;1.02;0.93;;;23.70;99.90;;;;;;4959662;28;20299;-70
2023/09/01 15:14:45;;;;;;;2.08;1.80;;;24.00;99.90;;;;;;4957451;29;20240;-72
2023/09/01 15:17:12;;;;;;;1.75;1.08;;;24.10;99.90;;;;;;4957721;29;20291;-77
2023/09/01 15:19:42;;;;;;;1.08;0.93;;;24.10;99.90;;;;;;4957644;29;20235;-78
2023/09/01 15:22:10;;;;;;;1.15;0.90;;;24.20;99.90;;;;;;4957553;28;20761;-70
2023/09/01 15:24:36;;;;;;;1.10;1.00;;;24.30;99.90;;;;;;4957157;29;20251;-70
2023/09/01 15:27:04;;;;;;;1.10;0.82;;;24.30;99.90;;;;;;4957445;29;20208;-70
2023/09/01 15:29:32;;;;;;;1.20;0.90;;;24.00;99.90;;;;;;4957418;29;20235;-71
2023/09/01 15:31:59;;;;;;;1.30;1.00;;;23.90;99.90;;;;;;4957399;28;20623;-70
2023/09/01 15:34:26;;;;;;;1.50;1.08;;;24.00;99.90;;;;;;4957076;29;20204;-70
2023/09/01 15:36:53;;;;;;;1.13;1.00;;;24.00;99.90;;;;;;4957292;29;20239;-70
2023/09/01 15:39:20;;;;;;;1.60;1.08;;;24.00;99.90;;;;;;4957066;29;20299;-70
2023/09/01 15:41:47;;;;;;;1.83;1.25;;;24.20;99.90;;;;;;4957283;28;20665;-70
2023/09/01 15:44:14;;;;;;;1.20;0.90;;;24.20;99.90;;;;;;4957005;29;20250;-70
2023/09/01 15:46:42;;;;;;;1.80;1.27;;;24.10;99.90;;;;;;4957262;29;20243;-70
2023/09/01 15:49:09;;;;;;;1.38;1.10;;;24.20;99.90;;;;;;4956900;29;20212;-68
2023/09/01 15:51:36;;;;;;;2.10;1.10;;;24.20;99.90;;;;;;4956817;28;20267;-69
2023/09/01 15:54:03;;;;;;;2.30;1.00;;;24.00;99.90;;;;;;4957295;29;20262;-69
2023/09/01 15:56:30;;;;;;;1.20;0.90;;;24.00;99.90;;;;;;4956759;28;20641;-70
2023/09/01 15:58:57;;;;;;;1.55;1.02;;;23.80;99.90;;;;;;4957147;29;20631;-69
2023/09/01 16:01:24;;;;;;;2.30;0.82;;;23.70;99.90;;;;;;4956660;28;20259;-69
2023/09/01 16:03:52;;;;;;;1.13;1.00;;;23.60;99.90;;;;;;4957170;29;20270;-69
2023/09/01 16:06:19;;;;;;;1.58;1.00;;;23.60;99.90;;;;;;4956711;29;20243;-69
2023/09/01 16:08:46;;;;;;;0.70;0.52;;;23.60;99.90;;;;;;4956932;29;20212;-69
2023/09/01 16:11:13;;;;;;;1.00;0.70;;;23.40;99.90;;;;;;4956657;28;20564;-69
2023/09/01 16:13:40;;;;;;;0.90;0.70;;;23.50;99.90;;;;;;4956629;29;20212;-69
2023/09/01 16:16:07;;;;;;;0.60;0.57;;;23.60;99.90;;;;;;4956541;29;20650;-69
2023/09/01 16:18:34;;;;;;;0.63;0.50;;;23.60;99.90;;;;;;4956345;29;20214;-69
2023/09/01 16:21:04;;;;;;;0.68;0.60;;;23.70;99.90;;;;;;4956442;28;20256;-69
2023/09/01 16:23:32;;;;;;;0.47;0.43;;;23.60;99.90;;;;;;4956237;28;20238;-70
2023/09/01 16:25:59;;;;;;;0.93;0.63;;;23.60;99.90;;;;;;4955070;29;20275;-69
2023/09/01 16:28:26;;;;;;;1.48;0.60;;;23.70;99.90;;;;;;4955920;29;20615;-69
2023/09/01 16:30:53;;;;;;;2.17;0.82;;;23.70;99.90;;;;;;4955676;28;20323;-71
2023/09/01 16:33:20;;;;;;;1.15;0.60;;;23.70;99.90;;;;;;4956084;29;20250;-69
2023/09/01 16:35:54;;;;;;;2.40;0.60;;;23.70;99.90;;;;;;4956256;29;20254;-70
2023/09/01 16:38:23;;;;;;;1.63;0.80;;;23.70;99.90;;;;;;4955827;29;20292;-73
2023/09/01 16:40:51;;;;;;;0.63;0.45;;;23.70;99.90;;;;;;4955716;28;20661;-69
2023/09/01 16:43:19;;;;;;;1.38;0.50;;;23.60;99.90;;;;;;4955648;29;20246;-69
2023/09/01 16:45:45;;;;;;;2.05;1.10;;;23.50;99.90;;;;;;4955457;29;20244;-69
2023/09/01 16:48:13;;;;;;;1.15;0.68;;;23.50;99.90;;;;;;4955583;29;20299;-69
2023/09/01 16:50:41;;;;;;;5.35;1.75;;;23.50;99.90;;;;;;4955576;28;20754;-69
2023/09/01 16:53:08;;;;;;;2.25;1.45;;;23.50;99.90;;;;;;4942431;28;20255;-67
2023/09/01 16:55:36;;;;;;;2.00;1.27;;;23.50;99.90;;;;;;4943944;29;20303;-72
2023/09/01 16:58:03;;;;;;;0.85;0.70;;;23.50;99.90;;;;;;4937232;29;20248;-68
2023/09/01 17:00:30;;;;;;;0.60;0.50;;;23.50;99.90;;;;;;4945779;29;20231;-69
2023/09/01 17:02:57;;;;;;;0.70;0.50;;;23.50;99.90;;;;;;4933616;29;20319;-69
2023/09/01 17:05:24;;;;;;;0.90;0.80;;;23.50;99.90;;;;;;4934803;29;20251;-69
2023/09/01 17:07:51;;;;;;;0.93;0.80;;;23.50;99.90;;;;;;4933920;29;20296;-70
2023/09/01 17:10:18;;;;;;;2.72;0.90;;;23.50;99.90;;;;;;4936538;29;20258;-69
2023/09/01 17:12:47;;;;;;;0.80;0.77;;;23.50;99.90;;;;;;4944111;29;20201;-72
2023/09/01 17:15:15;;;;;;;1.33;0.98;;;23.30;99.90;;;;;;4940279;29;20275;-71
2023/09/01 17:17:42;;;;;;;2.05;1.30;;;23.30;99.90;;;;;;4942378;29;20200;-71
2023/09/01 17:20:10;;;;;;;1.20;0.80;;;23.00;99.90;;;;;;4933798;29;20256;-70
2023/09/01 17:22:37;;;;;;;1.77;1.00;;;22.70;99.90;;;;;;4934022;29;20272;-72
2023/09/01 17:25:05;;;;;;;1.80;1.13;;;22.80;99.90;;;;;;4933471;29;20260;-71
2023/09/01 17:27:33;;;;;;;1.20;0.70;;;22.80;99.90;;;;;;4934043;29;20299;-71
2023/09/01 17:30:03;;;;;;;1.33;0.90;;;22.70;99.90;;;;;;4934292;29;20271;-73
2023/09/01 17:32:30;;;;;;;1.08;0.75;;;22.70;99.90;;;;;;4935329;29;20617;-72
2023/09/01 17:34:57;;;;;;;1.75;0.88;;;22.70;99.90;;;;;;4935864;29;20248;-70
2023/09/01 17:37:24;;;;;;;0.50;0.50;;;22.60;99.90;;;;;;4935216;29;20672;-70
2023/09/01 17:39:51;;;;;;;0.70;0.70;;;22.60;99.90;;;;;;4935642;29;20240;-70
2023/09/01 17:42:18;;;;;;;1.02;0.70;;;22.50;99.90;;;;;;4936083;29;20327;-70
2023/09/01 17:44:45;;;;;;;0.73;0.50;;;22.40;99.90;;;;;;4935859;29;20640;-71
2023/09/01 17:47:13;;;;;;;1.52;0.40;;;22.40;99.90;;;;;;4935910;29;20240;-70
2023/09/01 17:49:40;;;;;;;1.85;0.60;;;22.30;99.90;;;;;;4935815;29;20295;-70
2023/09/01 17:52:07;;;;;;;0.90;0.43;;;22.20;99.90;;;;;;4935709;29;20267;-70
2023/09/01 17:54:34;;;;;;;0.63;0.50;;;22.20;99.90;;;;;;4935581;29;20248;-70
2023/09/01 17:57:03;;;;;;;2.63;0.90;;;22.10;99.90;;;;;;4935994;29;20219;-71
2023/09/01 17:59:29;;;;;;;2.08;0.65;;;22.00;99.90;;;;;;4935837;29;20213;-70
2023/09/01 18:01:56;;;;;;;0.70;0.70;;;22.00;99.90;;;;;;4935257;29;20659;-70
2023/09/01 18:04:25;;;;;;;1.80;1.30;;;21.80;99.90;;;;;;4935791;29;20240;-71
2023/09/01 18:06:52;;;;;;;3.78;1.67;;;21.80;99.90;;;;;;4935844;29;20217;-71
2023/09/01 18:09:19;;;;;;;4.15;2.08;;;21.80;99.90;;;;;;4935896;29;20624;-73
2023/09/01 18:11:51;;;;;;;2.33;0.98;;;21.70;99.90;;;;;;4935730;29;20280;-71
2023/09/01 18:14:18;;;;;;;2.83;1.25;;;21.70;99.90;;;;;;4935726;29;20248;-72
2023/09/01 18:16:45;;;;;;;4.22;2.08;;;21.60;99.90;;;;;;4935800;29;20269;-70
2023/09/01 18:19:12;;;;;;;3.65;1.42;;;21.50;99.90;;;;;;4935797;29;20300;-72
2023/09/01 18:21:41;;;;;;;3.03;1.30;;;21.50;99.90;;;;;;4935694;29;20232;-71
2023/09/01 18:24:14;;;;;;;2.55;1.58;;;21.30;99.90;;;;;;4935636;29;20239;-70
2023/09/01 18:26:42;;;;;;;1.50;1.00;;;21.20;99.90;;;;;;4935557;29;20216;-70
2023/09/01 18:29:17;;;;;;;1.90;0.95;;;21.10;99.90;;;;;;4935614;29;20239;-69
2023/09/01 18:31:44;;;;;;;1.58;1.10;;;20.90;99.90;;;;;;4935144;29;20672;-71
2023/09/01 18:34:11;;;;;;;7.25;2.28;;;20.70;99.90;;;;;;4935533;29;20223;-71
2023/09/01 18:36:38;;;;;;;6.53;2.53;;;20.70;99.90;;;;;;4935533;29;20236;-70
2023/09/01 18:39:07;;;;;;;6.55;2.50;;;20.60;99.90;;;;;;4935327;29;20255;-71
2023/09/01 18:41:34;;;;;;;6.45;3.28;;;20.50;99.90;;;;;;4935205;29;20316;-71
2023/09/01 18:44:04;;;;;;;3.80;1.55;;;20.50;99.90;;;;;;4935318;29;20282;-70
2023/09/01 18:46:33;;;;;;;2.80;1.25;;;20.50;99.90;;;;;;4935569;29;20308;-70
2023/09/01 18:49:04;;;;;;;2.58;1.20;;;20.50;99.90;;;;;;4937764;29;20292;-71
2023/09/01 18:51:31;;;;;;;1.50;0.65;;;20.50;99.90;;;;;;4938705;29;20723;-70
2023/09/01 18:53:59;;;;;;;0.70;0.60;;;20.40;99.90;;;;;;4939028;29;20304;-70
2023/09/01 18:56:27;;;;;;;0.70;0.60;;;20.40;99.90;;;;;;4938644;29;20620;-70
2023/09/01 18:58:54;;;;;;;0.90;0.60;;;20.30;99.90;;;;;;4938813;29;20241;-70
2023/09/01 19:01:27;;;;;;;2.35;1.20;;;20.30;99.90;;;;;;4938777;29;20742;-70
2023/09/01 19:03:54;;;;;;;1.98;1.10;;;20.20;99.90;;;;;;4938753;29;20327;-71
2023/09/01 19:06:24;;;;;;;1.60;1.10;;;20.20;99.90;;;;;;4938356;29;20719;-70
2023/09/01 19:08:52;;;;;;;1.63;0.98;;;20.10;99.90;;;;;;4923998;29;20689;-70
2023/09/01 19:11:21;;;;;;;1.40;0.88;;;20.10;99.90;;;;;;4924104;29;20229;-71
2023/09/01 19:13:53;;;;;;;3.28;0.93;;;20.10;99.90;;;;;;4930576;29;20232;-71
2023/09/01 19:16:21;;;;;;;1.25;0.80;;;20.10;99.90;;;;;;4935102;29;20319;-70
2023/09/01 19:18:49;;;;;;;3.63;1.50;;;20.10;99.90;;;;;;4924544;29;20217;-72
2023/09/01 19:21:16;;;;;;;2.88;0.90;;;20.10;99.90;;;;;;4924144;29;20240;-71
2023/09/01 19:23:44;;;;;;;2.55;1.10;;;20.00;99.90;;;;;;4928551;29;20716;-71
2023/09/01 19:26:16;;;;;;;3.33;1.75;;;19.90;99.90;;;;;;4934587;29;20604;-71
2023/09/01 19:28:44;;;;;;;3.95;1.67;;;19.90;99.90;;;;;;4929907;29;20241;-72
2023/09/01 19:31:13;;;;;;;4.25;1.48;;;19.80;99.90;;;;;;4930501;29;20304;-70
2023/09/01 19:33:44;;;;;;;2.13;1.30;;;19.70;99.90;;;;;;4930622;29;20213;-70
2023/09/01 19:36:19;;;;;;;3.42;1.60;;;19.70;99.90;;;;;;4931966;29;20576;-72
2023/09/01 19:38:47;;;;;;;2.58;1.63;;;19.70;99.90;;;;;;4933464;29;20672;-70
2023/09/01 19:41:14;;;;;;;3.85;1.42;;;19.70;99.90;;;;;;4930620;29;20229;-70
2023/09/01 19:43:41;;;;;;;2.50;0.90;;;19.60;99.90;;;;;;4926067;29;20327;-70
2023/09/01 19:46:08;;;;;;;1.98;1.35;;;19.60;99.90;;;;;;4925662;29;20245;-71
2023/09/01 19:48:39;;;;;;;5.60;1.75;;;19.60;99.90;;;;;;4930658;29;20716;-70
2023/09/01 19:51:06;;;;;;;2.58;1.40;;;19.50;99.90;;;;;;4922455;29;20337;-72
2023/09/01 19:53:33;;;;;;;2.80;1.35;;;19.40;99.90;;;;;;4935215;29;20209;-71
2023/09/01 19:56:10;;;;;;;4.10;1.30;;;19.40;99.90;;;;;;4921162;29;20300;-70
2023/09/01 19:58:43;;;;;;;5.38;1.40;;;19.40;99.90;;;;;;4931937;29;20288;-72
2023/09/01 20:01:11;;;;;;;2.03;1.10;;;19.40;99.90;;;;;;4931023;29;20260;-72
2023/09/01 20:03:40;;;;;;;3.05;1.50;;;19.20;99.90;;;;;;4930786;29;20328;-71
2023/09/01 20:06:08;;;;;;;1.92;1.40;;;19.20;99.90;;;;;;4930017;29;20292;-69
2023/09/01 20:08:36;;;;;;;3.15;1.42;;;19.20;99.90;;;;;;4930645;29;20209;-70
2023/09/01 20:11:05;;;;;;;1.90;1.00;;;19.20;99.90;;;;;;4927886;29;20256;-71
2023/09/01 20:13:36;;;;;;;2.40;1.40;;;19.10;99.90;;;;;;4928995;29;20663;-70
2023/09/01 20:16:03;;;;;;;4.00;1.60;;;19.10;99.90;;;;;;4925194;29;20211;-71
2023/09/01 20:18:30;;;;;;;2.13;1.20;;;19.20;99.90;;;;;;4922544;29;20286;-71